sensor_id;sensor_type;location;lat;lon;timestamp;temperature;humidity
42141;DHT22;27809;51.864;5.646;2023-04-25T00:02:12;4.80;99.90
42141;DHT22;27809;51.864;5.646;2023-04-25T00:04:38;4.80;99.90
42141;DHT22;27809;51.864;5.646;2023-04-25T00:07:04;5.00;99.90
42141;DHT22;27809;51.864;5.646;2023-04-25T00:09:30;4.90;99.90
42141;DHT22;27809;51.864;5.646;2023-04-25T00:11:55;4.90;99.90
42141;DHT22;27809;51.864;5.646;2023-04-25T00:14:21;5.20;99.90
42141;DHT22;27809;51.864;5.646;2023-04-25T00:16:48;5.30;99.90
42141;DHT22;27809;51.864;5.646;2023-04-25T00:19:13;5.20;99.90
42141;DHT22;27809;51.864;5.646;2023-04-25T00:21:39;4.90;99.90
42141;DHT22;27809;51.864;5.646;2023-04-25T00:24:06;5.00;99.90
42141;DHT22;27809;51.864;5.646;2023-04-25T00:26:33;5.00;99.90
42141;DHT22;27809;51.864;5.646;2023-04-25T00:28:59;5.00;99.90
42141;DHT22;27809;51.864;5.646;2023-04-25T00:31:24;5.00;99.90
42141;DHT22;27809;51.864;5.646;2023-04-25T00:33:50;5.10;99.90
42141;DHT22;27809;51.864;5.646;2023-04-25T00:36:16;5.10;99.90
42141;DHT22;27809;51.864;5.646;2023-04-25T00:38:42;5.20;99.90
42141;DHT22;27809;51.864;5.646;2023-04-25T00:41:07;5.20;99.90
42141;DHT22;27809;51.864;5.646;2023-04-25T00:43:33;5.10;99.90
42141;DHT22;27809;51.864;5.646;2023-04-25T00:46:01;5.00;99.90
42141;DHT22;27809;51.864;5.646;2023-04-25T00:48:27;5.00;99.90
42141;DHT22;27809;51.864;5.646;2023-04-25T00:50:54;4.90;99.90
42141;DHT22;27809;51.864;5.646;2023-04-25T00:53:24;4.80;99.90
42141;DHT22;27809;51.864;5.646;2023-04-25T00:55:51;4.90;99.90
42141;DHT22;27809;51.864;5.646;2023-04-25T00:58:21;4.80;99.90
42141;DHT22;27809;51.864;5.646;2023-04-25T01:00:48;4.70;99.90
42141;DHT22;27809;51.864;5.646;2023-04-25T01:03:16;4.60;99.90
42141;DHT22;27809;51.864;5.646;2023-04-25T01:05:43;4.50;99.90
42141;DHT22;27809;51.864;5.646;2023-04-25T01:08:09;4.30;99.90
42141;DHT22;27809;51.864;5.646;2023-04-25T01:10:36;4.20;99.90
42141;DHT22;27809;51.864;5.646;2023-04-25T01:13:01;4.20;99.90
42141;DHT22;27809;51.864;5.646;2023-04-25T01:15:27;4.20;99.90
42141;DHT22;27809;51.864;5.646;2023-04-25T01:17:53;4.10;99.90
42141;DHT22;27809;51.864;5.646;2023-04-25T01:20:21;4.30;99.90
42141;DHT22;27809;51.864;5.646;2023-04-25T01:22:48;4.30;99.90
42141;DHT22;27809;51.864;5.646;2023-04-25T01:25:14;4.20;99.90
42141;DHT22;27809;51.864;5.646;2023-04-25T01:27:40;4.30;99.90
42141;DHT22;27809;51.864;5.646;2023-04-25T01:30:06;4.20;99.90
42141;DHT22;27809;51.864;5.646;2023-04-25T01:32:33;4.50;99.90
42141;DHT22;27809;51.864;5.646;2023-04-25T01:35:08;4.60;99.90
42141;DHT22;27809;51.864;5.646;2023-04-25T01:37:39;4.70;99.90
42141;DHT22;27809;51.864;5.646;2023-04-25T01:40:05;4.70;99.90
42141;DHT22;27809;51.864;5.646;2023-04-25T01:42:35;4.70;99.90
42141;DHT22;27809;51.864;5.646;2023-04-25T01:45:01;4.60;99.90
42141;DHT22;27809;51.864;5.646;2023-04-25T01:47:26;4.60;99.90
42141;DHT22;27809;51.864;5.646;2023-04-25T01:49:52;4.50;99.90
42141;DHT22;27809;51.864;5.646;2023-04-25T01:52:17;4.50;99.90
42141;DHT22;27809;51.864;5.646;2023-04-25T01:54:43;4.30;99.90
42141;DHT22;27809;51.864;5.646;2023-04-25T01:57:10;4.20;99.90
42141;DHT22;27809;51.864;5.646;2023-04-25T01:59:36;4.10;99.90
42141;DHT22;27809;51.864;5.646;2023-04-25T02:02:02;4.00;99.90
42141;DHT22;27809;51.864;5.646;2023-04-25T02:04:29;3.90;99.90
42141;DHT22;27809;51.864;5.646;2023-04-25T02:06:55;3.70;99.90
42141;DHT22;27809;51.864;5.646;2023-04-25T02:09:21;3.70;99.90
42141;DHT22;27809;51.864;5.646;2023-04-25T02:11:46;3.60;99.90
42141;DHT22;27809;51.864;5.646;2023-04-25T02:14:12;3.60;99.90
42141;DHT22;27809;51.864;5.646;2023-04-25T02:16:37;3.50;99.90
42141;DHT22;27809;51.864;5.646;2023-04-25T02:19:05;3.50;99.90
42141;DHT22;27809;51.864;5.646;2023-04-25T02:21:30;3.40;99.90
42141;DHT22;27809;51.864;5.646;2023-04-25T02:23:57;3.40;99.90
42141;DHT22;27809;51.864;5.646;2023-04-25T02:26:22;3.30;99.90
42141;DHT22;27809;51.864;5.646;2023-04-25T02:28:49;3.30;99.90
42141;DHT22;27809;51.864;5.646;2023-04-25T02:31:15;3.40;99.90
42141;DHT22;27809;51.864;5.646;2023-04-25T02:33:40;3.30;99.90
42141;DHT22;27809;51.864;5.646;2023-04-25T02:36:06;3.30;99.90
42141;DHT22;27809;51.864;5.646;2023-04-25T02:38:32;3.30;99.90
42141;DHT22;27809;51.864;5.646;2023-04-25T02:40:57;3.20;99.90
42141;DHT22;27809;51.864;5.646;2023-04-25T02:43:23;3.10;99.90
42141;DHT22;27809;51.864;5.646;2023-04-25T02:45:48;3.10;99.90
42141;DHT22;27809;51.864;5.646;2023-04-25T02:48:14;3.20;99.90
42141;DHT22;27809;51.864;5.646;2023-04-25T02:50:39;3.10;99.90
42141;DHT22;27809;51.864;5.646;2023-04-25T02:53:05;3.10;99.90
42141;DHT22;27809;51.864;5.646;2023-04-25T02:55:30;3.10;99.90
42141;DHT22;27809;51.864;5.646;2023-04-25T02:57:56;3.20;99.90
42141;DHT22;27809;51.864;5.646;2023-04-25T03:00:22;3.20;99.90
42141;DHT22;27809;51.864;5.646;2023-04-25T03:02:48;3.30;99.90
42141;DHT22;27809;51.864;5.646;2023-04-25T03:05:13;3.20;99.90
42141;DHT22;27809;51.864;5.646;2023-04-25T03:07:39;3.30;99.90
42141;DHT22;27809;51.864;5.646;2023-04-25T03:10:06;3.40;99.90
42141;DHT22;27809;51.864;5.646;2023-04-25T03:12:32;3.40;99.90
42141;DHT22;27809;51.864;5.646;2023-04-25T03:14:57;3.40;99.90
42141;DHT22;27809;51.864;5.646;2023-04-25T03:17:23;3.30;99.90
42141;DHT22;27809;51.864;5.646;2023-04-25T03:19:48;3.20;99.90
42141;DHT22;27809;51.864;5.646;2023-04-25T03:22:14;3.20;99.90
42141;DHT22;27809;51.864;5.646;2023-04-25T03:24:40;3.10;99.90
42141;DHT22;27809;51.864;5.646;2023-04-25T03:27:05;3.00;99.90
42141;DHT22;27809;51.864;5.646;2023-04-25T03:29:31;3.00;99.90
42141;DHT22;27809;51.864;5.646;2023-04-25T03:31:56;3.10;99.90
42141;DHT22;27809;51.864;5.646;2023-04-25T03:34:22;3.00;99.90
42141;DHT22;27809;51.864;5.646;2023-04-25T03:36:47;3.10;99.90
42141;DHT22;27809;51.864;5.646;2023-04-25T03:39:13;3.30;99.90
42141;DHT22;27809;51.864;5.646;2023-04-25T03:41:38;3.40;99.90
42141;DHT22;27809;51.864;5.646;2023-04-25T03:44:04;3.50;99.90
42141;DHT22;27809;51.864;5.646;2023-04-25T03:46:29;3.60;99.90
42141;DHT22;27809;51.864;5.646;2023-04-25T03:48:55;3.60;99.90
42141;DHT22;27809;51.864;5.646;2023-04-25T03:51:20;3.50;99.90
42141;DHT22;27809;51.864;5.646;2023-04-25T03:53:46;3.70;99.90
42141;DHT22;27809;51.864;5.646;2023-04-25T03:56:11;3.60;99.90
42141;DHT22;27809;51.864;5.646;2023-04-25T03:58:37;3.80;99.90
42141;DHT22;27809;51.864;5.646;2023-04-25T04:01:02;4.00;99.90
42141;DHT22;27809;51.864;5.646;2023-04-25T04:03:33;4.00;99.90
42141;DHT22;27809;51.864;5.646;2023-04-25T04:05:59;3.90;99.90
42141;DHT22;27809;51.864;5.646;2023-04-25T04:08:25;3.90;99.90
42141;DHT22;27809;51.864;5.646;2023-04-25T04:10:50;3.90;99.90
42141;DHT22;27809;51.864;5.646;2023-04-25T04:13:16;3.80;99.90
42141;DHT22;27809;51.864;5.646;2023-04-25T04:15:41;4.00;99.90
42141;DHT22;27809;51.864;5.646;2023-04-25T04:18:07;4.00;99.90
42141;DHT22;27809;51.864;5.646;2023-04-25T04:20:32;3.90;99.90
42141;DHT22;27809;51.864;5.646;2023-04-25T04:22:58;3.70;99.90
42141;DHT22;27809;51.864;5.646;2023-04-25T04:25:23;3.80;99.90
42141;DHT22;27809;51.864;5.646;2023-04-25T04:27:50;3.90;99.90
42141;DHT22;27809;51.864;5.646;2023-04-25T04:30:21;4.00;99.90
42141;DHT22;27809;51.864;5.646;2023-04-25T04:32:46;4.00;99.90
42141;DHT22;27809;51.864;5.646;2023-04-25T04:35:14;4.20;99.90
42141;DHT22;27809;51.864;5.646;2023-04-25T04:37:39;4.30;99.90
42141;DHT22;27809;51.864;5.646;2023-04-25T04:40:05;4.40;99.90
42141;DHT22;27809;51.864;5.646;2023-04-25T04:42:32;4.50;99.90
42141;DHT22;27809;51.864;5.646;2023-04-25T04:44:57;4.40;99.90
42141;DHT22;27809;51.864;5.646;2023-04-25T04:47:24;4.50;99.90
42141;DHT22;27809;51.864;5.646;2023-04-25T04:49:51;4.60;99.90
42141;DHT22;27809;51.864;5.646;2023-04-25T04:52:16;4.60;99.90
42141;DHT22;27809;51.864;5.646;2023-04-25T04:54:42;4.70;99.90
42141;DHT22;27809;51.864;5.646;2023-04-25T04:57:07;4.80;99.90
42141;DHT22;27809;51.864;5.646;2023-04-25T04:59:33;4.90;99.90
42141;DHT22;27809;51.864;5.646;2023-04-25T05:01:58;5.10;99.90
42141;DHT22;27809;51.864;5.646;2023-04-25T05:04:24;5.20;99.90
42141;DHT22;27809;51.864;5.646;2023-04-25T05:06:50;5.20;99.90
42141;DHT22;27809;51.864;5.646;2023-04-25T05:09:16;5.30;99.90
42141;DHT22;27809;51.864;5.646;2023-04-25T05:11:42;5.30;99.90
42141;DHT22;27809;51.864;5.646;2023-04-25T05:14:07;5.50;99.90
42141;DHT22;27809;51.864;5.646;2023-04-25T05:16:33;5.50;99.90
42141;DHT22;27809;51.864;5.646;2023-04-25T05:18:58;5.60;99.90
42141;DHT22;27809;51.864;5.646;2023-04-25T05:21:24;5.60;99.90
42141;DHT22;27809;51.864;5.646;2023-04-25T05:23:49;5.60;99.90
42141;DHT22;27809;51.864;5.646;2023-04-25T05:26:15;5.60;99.90
42141;DHT22;27809;51.864;5.646;2023-04-25T05:28:41;5.60;99.90
42141;DHT22;27809;51.864;5.646;2023-04-25T05:31:07;5.60;99.90
42141;DHT22;27809;51.864;5.646;2023-04-25T05:33:33;5.70;99.90
42141;DHT22;27809;51.864;5.646;2023-04-25T05:35:58;5.70;99.90
42141;DHT22;27809;51.864;5.646;2023-04-25T05:38:24;5.70;99.90
42141;DHT22;27809;51.864;5.646;2023-04-25T05:40:49;5.70;99.90
42141;DHT22;27809;51.864;5.646;2023-04-25T05:43:15;5.80;99.90
42141;DHT22;27809;51.864;5.646;2023-04-25T05:45:40;5.90;99.90
42141;DHT22;27809;51.864;5.646;2023-04-25T05:48:06;6.00;99.90
42141;DHT22;27809;51.864;5.646;2023-04-25T05:50:31;6.10;99.90
42141;DHT22;27809;51.864;5.646;2023-04-25T05:52:57;6.00;99.90
42141;DHT22;27809;51.864;5.646;2023-04-25T05:55:22;6.10;99.90
42141;DHT22;27809;51.864;5.646;2023-04-25T05:57:48;6.10;99.90
42141;DHT22;27809;51.864;5.646;2023-04-25T06:00:14;6.20;99.90
42141;DHT22;27809;51.864;5.646;2023-04-25T06:02:41;6.20;99.90
42141;DHT22;27809;51.864;5.646;2023-04-25T06:05:07;6.20;99.90
42141;DHT22;27809;51.864;5.646;2023-04-25T06:07:33;6.20;99.90
42141;DHT22;27809;51.864;5.646;2023-04-25T06:09:58;6.30;99.90
42141;DHT22;27809;51.864;5.646;2023-04-25T06:12:25;6.50;99.20
42141;DHT22;27809;51.864;5.646;2023-04-25T06:14:50;6.70;95.90
42141;DHT22;27809;51.864;5.646;2023-04-25T06:17:16;6.80;94.90
42141;DHT22;27809;51.864;5.646;2023-04-25T06:19:41;7.00;97.90
42141;DHT22;27809;51.864;5.646;2023-04-25T06:22:07;7.10;96.10
42141;DHT22;27809;51.864;5.646;2023-04-25T06:24:33;11.30;99.90
42141;DHT22;27809;51.864;5.646;2023-04-25T06:26:59;15.10;1.00
42141;DHT22;27809;51.864;5.646;2023-04-25T06:29:25;9.00;33.90
42141;DHT22;27809;51.864;5.646;2023-04-25T06:31:51;7.90;79.30
42141;DHT22;27809;51.864;5.646;2023-04-25T06:34:16;7.70;84.40
42141;DHT22;27809;51.864;5.646;2023-04-25T06:36:42;7.50;72.60
42141;DHT22;27809;51.864;5.646;2023-04-25T06:39:09;7.60;92.50
42141;DHT22;27809;51.864;5.646;2023-04-25T06:41:35;7.40;79.50
42141;DHT22;27809;51.864;5.646;2023-04-25T06:44:00;7.40;78.80
42141;DHT22;27809;51.864;5.646;2023-04-25T06:46:26;7.50;86.70
42141;DHT22;27809;51.864;5.646;2023-04-25T06:48:52;7.40;90.90
42141;DHT22;27809;51.864;5.646;2023-04-25T06:51:17;7.30;90.10
42141;DHT22;27809;51.864;5.646;2023-04-25T06:53:43;7.30;90.20
42141;DHT22;27809;51.864;5.646;2023-04-25T06:56:08;7.70;76.10
42141;DHT22;27809;51.864;5.646;2023-04-25T06:58:34;8.40;84.00
42141;DHT22;27809;51.864;5.646;2023-04-25T07:01:00;8.00;77.30
42141;DHT22;27809;51.864;5.646;2023-04-25T07:03:25;7.90;80.10
42141;DHT22;27809;51.864;5.646;2023-04-25T07:05:51;7.50;72.60
42141;DHT22;27809;51.864;5.646;2023-04-25T07:08:16;7.70;90.70
42141;DHT22;27809;51.864;5.646;2023-04-25T07:10:42;7.70;73.40
42141;DHT22;27809;51.864;5.646;2023-04-25T07:13:08;8.60;99.90
42141;DHT22;27809;51.864;5.646;2023-04-25T07:15:33;8.20;67.10
42141;DHT22;27809;51.864;5.646;2023-04-25T07:17:59;7.90;67.80
42141;DHT22;27809;51.864;5.646;2023-04-25T07:20:25;8.10;63.90
42141;DHT22;27809;51.864;5.646;2023-04-25T07:22:51;8.30;65.30
42141;DHT22;27809;51.864;5.646;2023-04-25T07:25:17;8.10;68.50
42141;DHT22;27809;51.864;5.646;2023-04-25T07:27:42;8.00;66.70
42141;DHT22;27809;51.864;5.646;2023-04-25T07:30:08;14.00;41.20
42141;DHT22;27809;51.864;5.646;2023-04-25T07:32:35;17.10;1.00
42141;DHT22;27809;51.864;5.646;2023-04-25T07:35:00;13.10;42.20
42141;DHT22;27809;51.864;5.646;2023-04-25T07:37:27;17.60;1.00
42141;DHT22;27809;51.864;5.646;2023-04-25T07:39:52;18.80;1.00
42141;DHT22;27809;51.864;5.646;2023-04-25T07:42:18;16.20;1.00
42141;DHT22;27809;51.864;5.646;2023-04-25T07:44:43;11.10;1.00
42141;DHT22;27809;51.864;5.646;2023-04-25T07:47:09;9.60;26.60
42141;DHT22;27809;51.864;5.646;2023-04-25T07:49:36;9.50;25.80
42141;DHT22;27809;51.864;5.646;2023-04-25T07:52:03;8.80;17.40
42141;DHT22;27809;51.864;5.646;2023-04-25T07:54:28;8.60;24.80
42141;DHT22;27809;51.864;5.646;2023-04-25T07:56:55;9.10;26.30
42141;DHT22;27809;51.864;5.646;2023-04-25T07:59:20;9.50;28.30
42141;DHT22;27809;51.864;5.646;2023-04-25T08:02:23;9.60;22.40
42141;DHT22;27809;51.864;5.646;2023-04-25T08:04:51;11.80;20.40
42141;DHT22;27809;51.864;5.646;2023-04-25T08:07:16;10.30;6.60
42141;DHT22;27809;51.864;5.646;2023-04-25T08:09:42;9.40;19.00
42141;DHT22;27809;51.864;5.646;2023-04-25T08:12:07;10.20;1.20
42141;DHT22;27809;51.864;5.646;2023-04-25T08:14:33;9.90;5.80
42141;DHT22;27809;51.864;5.646;2023-04-25T08:17:02;9.60;14.60
42141;DHT22;27809;51.864;5.646;2023-04-25T08:19:29;10.10;19.60
42141;DHT22;27809;51.864;5.646;2023-04-25T08:21:55;9.80;22.50
42141;DHT22;27809;51.864;5.646;2023-04-25T08:24:21;13.80;7.00
42141;DHT22;27809;51.864;5.646;2023-04-25T08:26:47;17.40;1.00
42141;DHT22;27809;51.864;5.646;2023-04-25T08:29:13;17.60;1.00
42141;DHT22;27809;51.864;5.646;2023-04-25T08:31:38;19.30;1.00
42141;DHT22;27809;51.864;5.646;2023-04-25T08:34:04;19.10;1.00
42141;DHT22;27809;51.864;5.646;2023-04-25T08:36:29;15.00;1.00
42141;DHT22;27809;51.864;5.646;2023-04-25T08:38:55;13.80;1.00
42141;DHT22;27809;51.864;5.646;2023-04-25T08:41:21;15.60;1.00
42141;DHT22;27809;51.864;5.646;2023-04-25T08:43:48;17.40;1.00
42141;DHT22;27809;51.864;5.646;2023-04-25T08:46:17;16.50;1.00
42141;DHT22;27809;51.864;5.646;2023-04-25T08:48:45;18.80;1.00
42141;DHT22;27809;51.864;5.646;2023-04-25T08:51:15;12.40;1.00
42141;DHT22;27809;51.864;5.646;2023-04-25T08:53:41;10.20;1.00
42141;DHT22;27809;51.864;5.646;2023-04-25T08:56:08;9.60;1.00
42141;DHT22;27809;51.864;5.646;2023-04-25T08:58:35;9.50;1.00
42141;DHT22;27809;51.864;5.646;2023-04-25T09:01:02;12.50;1.00
42141;DHT22;27809;51.864;5.646;2023-04-25T09:03:28;15.20;1.00
42141;DHT22;27809;51.864;5.646;2023-04-25T09:05:55;12.50;1.00
42141;DHT22;27809;51.864;5.646;2023-04-25T09:08:21;10.40;1.00
42141;DHT22;27809;51.864;5.646;2023-04-25T09:10:46;10.20;1.00
42141;DHT22;27809;51.864;5.646;2023-04-25T09:13:14;14.30;1.00
42141;DHT22;27809;51.864;5.646;2023-04-25T09:15:50;14.40;1.00
42141;DHT22;27809;51.864;5.646;2023-04-25T09:18:27;16.00;1.00
42141;DHT22;27809;51.864;5.646;2023-04-25T09:20:54;19.20;1.00
42141;DHT22;27809;51.864;5.646;2023-04-25T09:23:21;19.70;1.00
42141;DHT22;27809;51.864;5.646;2023-04-25T09:25:50;18.60;1.00
42141;DHT22;27809;51.864;5.646;2023-04-25T09:28:16;19.10;1.00
42141;DHT22;27809;51.864;5.646;2023-04-25T09:30:42;19.00;1.00
42141;DHT22;27809;51.864;5.646;2023-04-25T09:33:09;18.90;1.00
42141;DHT22;27809;51.864;5.646;2023-04-25T09:35:37;16.10;1.00
42141;DHT22;27809;51.864;5.646;2023-04-25T09:38:11;15.60;1.00
42141;DHT22;27809;51.864;5.646;2023-04-25T09:40:45;17.00;1.00
42141;DHT22;27809;51.864;5.646;2023-04-25T09:43:21;17.30;1.00
42141;DHT22;27809;51.864;5.646;2023-04-25T09:45:47;14.60;1.00
42141;DHT22;27809;51.864;5.646;2023-04-25T09:48:19;13.00;1.00
42141;DHT22;27809;51.864;5.646;2023-04-25T09:53:29;9.70;1.00
42141;DHT22;27809;51.864;5.646;2023-04-25T09:55:59;9.30;1.00
42141;DHT22;27809;51.864;5.646;2023-04-25T09:58:25;9.10;1.00
42141;DHT22;27809;51.864;5.646;2023-04-25T10:00:59;9.20;1.00
42141;DHT22;27809;51.864;5.646;2023-04-25T10:03:25;9.30;1.00
42141;DHT22;27809;51.864;5.646;2023-04-25T10:05:52;9.60;1.00
42141;DHT22;27809;51.864;5.646;2023-04-25T10:08:20;11.50;1.00
42141;DHT22;27809;51.864;5.646;2023-04-25T10:10:46;12.10;1.00
42141;DHT22;27809;51.864;5.646;2023-04-25T10:13:13;11.20;1.00
42141;DHT22;27809;51.864;5.646;2023-04-25T10:15:40;11.80;1.00
42141;DHT22;27809;51.864;5.646;2023-04-25T10:18:07;11.10;1.00
42141;DHT22;27809;51.864;5.646;2023-04-25T10:20:32;11.20;1.00
42141;DHT22;27809;51.864;5.646;2023-04-25T10:23:11;12.10;1.00
42141;DHT22;27809;51.864;5.646;2023-04-25T10:25:39;12.10;1.00
42141;DHT22;27809;51.864;5.646;2023-04-25T10:28:05;12.50;1.00
42141;DHT22;27809;51.864;5.646;2023-04-25T10:30:31;12.50;1.00
42141;DHT22;27809;51.864;5.646;2023-04-25T10:32:58;13.50;1.00
42141;DHT22;27809;51.864;5.646;2023-04-25T10:35:26;13.60;1.00
42141;DHT22;27809;51.864;5.646;2023-04-25T10:38:13;13.80;1.00
42141;DHT22;27809;51.864;5.646;2023-04-25T10:40:39;14.00;1.00
42141;DHT22;27809;51.864;5.646;2023-04-25T10:43:33;13.70;1.00
42141;DHT22;27809;51.864;5.646;2023-04-25T10:46:02;13.40;1.00
42141;DHT22;27809;51.864;5.646;2023-04-25T10:48:30;11.40;1.00
42141;DHT22;27809;51.864;5.646;2023-04-25T10:51:11;11.20;1.00
42141;DHT22;27809;51.864;5.646;2023-04-25T10:53:37;11.00;1.00
42141;DHT22;27809;51.864;5.646;2023-04-25T10:56:20;11.60;1.00
42141;DHT22;27809;51.864;5.646;2023-04-25T10:58:46;10.10;1.00
42141;DHT22;27809;51.864;5.646;2023-04-25T11:01:13;9.50;1.00
42141;DHT22;27809;51.864;5.646;2023-04-25T11:03:43;9.40;9.90
42141;DHT22;27809;51.864;5.646;2023-04-25T11:06:33;9.70;6.10
42141;DHT22;27809;51.864;5.646;2023-04-25T11:09:02;10.10;4.80
42141;DHT22;27809;51.864;5.646;2023-04-25T11:11:29;11.90;1.00
42141;DHT22;27809;51.864;5.646;2023-04-25T11:13:54;11.80;1.00
42141;DHT22;27809;51.864;5.646;2023-04-25T11:16:24;11.70;1.00
42141;DHT22;27809;51.864;5.646;2023-04-25T11:18:50;11.60;1.00
42141;DHT22;27809;51.864;5.646;2023-04-25T11:21:16;12.00;1.00
42141;DHT22;27809;51.864;5.646;2023-04-25T11:23:45;12.10;1.00
42141;DHT22;27809;51.864;5.646;2023-04-25T11:26:11;11.90;1.00
42141;DHT22;27809;51.864;5.646;2023-04-25T11:28:37;12.00;1.00
42141;DHT22;27809;51.864;5.646;2023-04-25T11:31:04;12.30;1.00
42141;DHT22;27809;51.864;5.646;2023-04-25T11:33:29;11.90;1.00
42141;DHT22;27809;51.864;5.646;2023-04-25T11:35:55;11.90;1.00
42141;DHT22;27809;51.864;5.646;2023-04-25T11:38:24;11.60;1.00
42141;DHT22;27809;51.864;5.646;2023-04-25T11:40:52;12.00;1.00
42141;DHT22;27809;51.864;5.646;2023-04-25T11:43:20;11.70;1.00
42141;DHT22;27809;51.864;5.646;2023-04-25T11:45:47;11.70;1.00
42141;DHT22;27809;51.864;5.646;2023-04-25T11:48:13;11.60;1.00
42141;DHT22;27809;51.864;5.646;2023-04-25T11:50:42;11.60;1.00
42141;DHT22;27809;51.864;5.646;2023-04-25T11:53:07;11.20;1.00
42141;DHT22;27809;51.864;5.646;2023-04-25T11:55:34;11.50;1.00
42141;DHT22;27809;51.864;5.646;2023-04-25T11:58:00;11.90;1.00
42141;DHT22;27809;51.864;5.646;2023-04-25T12:00:26;11.70;1.00
42141;DHT22;27809;51.864;5.646;2023-04-25T12:02:53;12.10;1.00
42141;DHT22;27809;51.864;5.646;2023-04-25T12:05:20;12.60;1.00
42141;DHT22;27809;51.864;5.646;2023-04-25T12:07:46;12.80;1.00
42141;DHT22;27809;51.864;5.646;2023-04-25T12:10:13;12.30;1.00
42141;DHT22;27809;51.864;5.646;2023-04-25T12:12:44;12.60;1.00
42141;DHT22;27809;51.864;5.646;2023-04-25T12:15:14;13.20;1.00
42141;DHT22;27809;51.864;5.646;2023-04-25T12:17:49;12.80;1.00
42141;DHT22;27809;51.864;5.646;2023-04-25T12:20:21;13.10;1.00
42141;DHT22;27809;51.864;5.646;2023-04-25T12:22:49;13.60;1.00
42141;DHT22;27809;51.864;5.646;2023-04-25T12:25:38;11.70;1.00
42141;DHT22;27809;51.864;5.646;2023-04-25T12:28:21;10.80;1.00
42141;DHT22;27809;51.864;5.646;2023-04-25T12:31:05;10.40;1.00
42141;DHT22;27809;51.864;5.646;2023-04-25T12:33:33;11.80;1.00
42141;DHT22;27809;51.864;5.646;2023-04-25T12:36:00;12.10;1.00
42141;DHT22;27809;51.864;5.646;2023-04-25T12:38:30;12.70;1.00
42141;DHT22;27809;51.864;5.646;2023-04-25T12:40:59;13.30;1.00
42141;DHT22;27809;51.864;5.646;2023-04-25T12:43:25;13.20;1.00
42141;DHT22;27809;51.864;5.646;2023-04-25T12:45:52;12.90;1.00
42141;DHT22;27809;51.864;5.646;2023-04-25T12:48:18;11.20;1.00
42141;DHT22;27809;51.864;5.646;2023-04-25T12:50:44;10.90;1.00
42141;DHT22;27809;51.864;5.646;2023-04-25T12:53:10;11.90;1.00
42141;DHT22;27809;51.864;5.646;2023-04-25T12:55:36;12.00;1.00
42141;DHT22;27809;51.864;5.646;2023-04-25T12:58:02;11.60;1.00
42141;DHT22;27809;51.864;5.646;2023-04-25T13:00:28;12.20;1.00
42141;DHT22;27809;51.864;5.646;2023-04-25T13:02:54;12.80;1.00
42141;DHT22;27809;51.864;5.646;2023-04-25T13:05:20;13.10;1.00
42141;DHT22;27809;51.864;5.646;2023-04-25T13:07:46;13.40;1.00
42141;DHT22;27809;51.864;5.646;2023-04-25T13:10:11;13.00;1.00
42141;DHT22;27809;51.864;5.646;2023-04-25T13:12:37;12.50;1.00
42141;DHT22;27809;51.864;5.646;2023-04-25T13:15:02;12.10;1.00
42141;DHT22;27809;51.864;5.646;2023-04-25T13:17:28;11.10;1.00
42141;DHT22;27809;51.864;5.646;2023-04-25T13:19:53;10.40;1.00
42141;DHT22;27809;51.864;5.646;2023-04-25T13:22:19;10.20;1.00
42141;DHT22;27809;51.864;5.646;2023-04-25T13:24:45;10.60;1.00
42141;DHT22;27809;51.864;5.646;2023-04-25T13:27:12;11.30;1.00
42141;DHT22;27809;51.864;5.646;2023-04-25T13:29:37;11.80;1.00
42141;DHT22;27809;51.864;5.646;2023-04-25T13:32:05;11.80;1.00
42141;DHT22;27809;51.864;5.646;2023-04-25T13:34:31;12.50;1.00
42141;DHT22;27809;51.864;5.646;2023-04-25T13:36:57;12.80;1.00
42141;DHT22;27809;51.864;5.646;2023-04-25T13:39:22;12.70;1.00
42141;DHT22;27809;51.864;5.646;2023-04-25T13:41:47;12.30;1.00
42141;DHT22;27809;51.864;5.646;2023-04-25T13:44:13;12.90;1.00
42141;DHT22;27809;51.864;5.646;2023-04-25T13:46:39;13.10;1.00
42141;DHT22;27809;51.864;5.646;2023-04-25T13:49:04;12.50;1.00
42141;DHT22;27809;51.864;5.646;2023-04-25T13:51:30;12.00;1.00
42141;DHT22;27809;51.864;5.646;2023-04-25T13:53:56;12.20;1.00
42141;DHT22;27809;51.864;5.646;2023-04-25T13:56:22;11.90;1.00
42141;DHT22;27809;51.864;5.646;2023-04-25T13:58:50;12.10;1.00
42141;DHT22;27809;51.864;5.646;2023-04-25T14:01:15;12.20;1.00
42141;DHT22;27809;51.864;5.646;2023-04-25T14:03:41;12.50;1.00
42141;DHT22;27809;51.864;5.646;2023-04-25T14:06:07;12.20;1.00
42141;DHT22;27809;51.864;5.646;2023-04-25T14:08:33;12.80;1.00
42141;DHT22;27809;51.864;5.646;2023-04-25T14:10:59;12.90;1.00
42141;DHT22;27809;51.864;5.646;2023-04-25T14:13:24;12.60;1.00
42141;DHT22;27809;51.864;5.646;2023-04-25T14:15:50;13.50;1.00
42141;DHT22;27809;51.864;5.646;2023-04-25T14:18:16;12.60;1.00
42141;DHT22;27809;51.864;5.646;2023-04-25T14:20:42;11.50;1.00
42141;DHT22;27809;51.864;5.646;2023-04-25T14:23:07;11.20;1.00
42141;DHT22;27809;51.864;5.646;2023-04-25T14:25:33;11.30;1.00
42141;DHT22;27809;51.864;5.646;2023-04-25T14:27:58;11.30;1.00
42141;DHT22;27809;51.864;5.646;2023-04-25T14:30:24;11.90;1.00
42141;DHT22;27809;51.864;5.646;2023-04-25T14:32:49;12.80;1.00
42141;DHT22;27809;51.864;5.646;2023-04-25T14:35:15;12.10;1.00
42141;DHT22;27809;51.864;5.646;2023-04-25T14:37:41;11.20;1.00
42141;DHT22;27809;51.864;5.646;2023-04-25T14:40:07;10.40;1.00
42141;DHT22;27809;51.864;5.646;2023-04-25T14:42:38;10.50;1.00
42141;DHT22;27809;51.864;5.646;2023-04-25T14:45:05;10.20;1.00
42141;DHT22;27809;51.864;5.646;2023-04-25T14:47:31;11.00;1.00
42141;DHT22;27809;51.864;5.646;2023-04-25T14:49:57;11.30;1.00
42141;DHT22;27809;51.864;5.646;2023-04-25T14:52:22;11.90;1.00
42141;DHT22;27809;51.864;5.646;2023-04-25T14:54:48;11.10;1.00
42141;DHT22;27809;51.864;5.646;2023-04-25T14:57:14;10.80;1.00
42141;DHT22;27809;51.864;5.646;2023-04-25T14:59:40;10.60;1.00
42141;DHT22;27809;51.864;5.646;2023-04-25T15:02:06;10.10;1.00
42141;DHT22;27809;51.864;5.646;2023-04-25T15:04:31;9.90;1.00
42141;DHT22;27809;51.864;5.646;2023-04-25T15:06:57;9.80;1.00
42141;DHT22;27809;51.864;5.646;2023-04-25T15:09:22;9.50;1.00
42141;DHT22;27809;51.864;5.646;2023-04-25T15:11:49;9.60;1.00
42141;DHT22;27809;51.864;5.646;2023-04-25T15:14:15;9.90;1.00
42141;DHT22;27809;51.864;5.646;2023-04-25T15:16:41;9.90;1.00
42141;DHT22;27809;51.864;5.646;2023-04-25T15:19:07;9.90;1.00
42141;DHT22;27809;51.864;5.646;2023-04-25T15:21:33;9.90;1.00
42141;DHT22;27809;51.864;5.646;2023-04-25T15:23:58;9.90;1.00
42141;DHT22;27809;51.864;5.646;2023-04-25T15:26:24;9.70;1.00
42141;DHT22;27809;51.864;5.646;2023-04-25T15:28:50;9.90;1.00
42141;DHT22;27809;51.864;5.646;2023-04-25T15:31:16;9.90;1.00
42141;DHT22;27809;51.864;5.646;2023-04-25T15:33:41;9.60;1.00
42141;DHT22;27809;51.864;5.646;2023-04-25T15:36:07;9.50;1.00
42141;DHT22;27809;51.864;5.646;2023-04-25T15:38:32;9.40;1.00
42141;DHT22;27809;51.864;5.646;2023-04-25T15:40:58;9.40;1.00
42141;DHT22;27809;51.864;5.646;2023-04-25T15:43:24;9.80;1.00
42141;DHT22;27809;51.864;5.646;2023-04-25T15:45:49;10.10;1.00
42141;DHT22;27809;51.864;5.646;2023-04-25T15:48:15;10.00;1.00